sensor_id;sensor_type;location;lat;lon;timestamp;P1;durP1;ratioP1;P2;durP2;ratioP2
76597;SDS011;65486;53.144;18.134;2023-09-30T00:00:56;16.90;;;11.20;;
76597;SDS011;65486;53.144;18.134;2023-09-30T00:03:30;16.80;;;10.90;;
76597;SDS011;65486;53.144;18.134;2023-09-30T00:05:57;17.80;;;11.40;;
76597;SDS011;65486;53.144;18.134;2023-09-30T00:08:27;20.80;;;12.50;;
76597;SDS011;65486;53.144;18.134;2023-09-30T00:10:54;19.10;;;12.20;;
76597;SDS011;65486;53.144;18.134;2023-09-30T00:13:21;19.90;;;11.40;;
76597;SDS011;65486;53.144;18.134;2023-09-30T00:15:49;15.90;;;11.20;;
76597;SDS011;65486;53.144;18.134;2023-09-30T00:18:16;18.90;;;11.60;;
76597;SDS011;65486;53.144;18.134;2023-09-30T00:20:43;17.60;;;10.80;;
76597;SDS011;65486;53.144;18.134;2023-09-30T00:23:10;17.60;;;10.60;;
76597;SDS011;65486;53.144;18.134;2023-09-30T00:25:37;18.30;;;11.60;;
76597;SDS011;65486;53.144;18.134;2023-09-30T00:28:05;16.70;;;11.10;;
76597;SDS011;65486;53.144;18.134;2023-09-30T00:30:32;15.80;;;11.30;;
76597;SDS011;65486;53.144;18.134;2023-09-30T00:32:59;19.30;;;12.20;;
76597;SDS011;65486;53.144;18.134;2023-09-30T00:35:27;16.20;;;11.30;;
76597;SDS011;65486;53.144;18.134;2023-09-30T00:37:54;16.90;;;11.50;;
76597;SDS011;65486;53.144;18.134;2023-09-30T00:40:22;18.00;;;11.50;;
76597;SDS011;65486;53.144;18.134;2023-09-30T00:42:49;19.20;;;11.30;;
76597;SDS011;65486;53.144;18.134;2023-09-30T00:45:17;18.60;;;11.90;;
76597;SDS011;65486;53.144;18.134;2023-09-30T00:47:44;16.50;;;11.20;;
76597;SDS011;65486;53.144;18.134;2023-09-30T00:50:11;19.30;;;11.00;;
76597;SDS011;65486;53.144;18.134;2023-09-30T00:52:40;16.90;;;10.50;;
76597;SDS011;65486;53.144;18.134;2023-09-30T00:55:07;13.60;;;10.50;;
76597;SDS011;65486;53.144;18.134;2023-09-30T00:57:35;16.80;;;10.50;;
76597;SDS011;65486;53.144;18.134;2023-09-30T01:00:04;16.10;;;10.80;;
76597;SDS011;65486;53.144;18.134;2023-09-30T01:02:32;15.70;;;10.70;;
76597;SDS011;65486;53.144;18.134;2023-09-30T01:05:01;16.00;;;11.30;;
76597;SDS011;65486;53.144;18.134;2023-09-30T01:07:29;16.50;;;11.70;;
76597;SDS011;65486;53.144;18.134;2023-09-30T01:09:56;19.40;;;11.50;;
76597;SDS011;65486;53.144;18.134;2023-09-30T01:12:22;17.10;;;11.10;;
76597;SDS011;65486;53.144;18.134;2023-09-30T01:14:49;16.20;;;11.00;;
76597;SDS011;65486;53.144;18.134;2023-09-30T01:17:16;13.00;;;10.50;;
76597;SDS011;65486;53.144;18.134;2023-09-30T01:19:43;17.50;;;10.30;;
76597;SDS011;65486;53.144;18.134;2023-09-30T01:22:10;19.70;;;11.00;;
76597;SDS011;65486;53.144;18.134;2023-09-30T01:24:38;18.20;;;11.20;;
76597;SDS011;65486;53.144;18.134;2023-09-30T01:27:10;15.10;;;10.80;;
76597;SDS011;65486;53.144;18.134;2023-09-30T01:29:38;17.20;;;10.80;;
76597;SDS011;65486;53.144;18.134;2023-09-30T01:32:05;13.70;;;10.50;;
76597;SDS011;65486;53.144;18.134;2023-09-30T01:34:36;17.10;;;10.80;;
76597;SDS011;65486;53.144;18.134;2023-09-30T01:37:05;17.40;;;11.70;;
76597;SDS011;65486;53.144;18.134;2023-09-30T01:39:32;16.20;;;11.20;;
76597;SDS011;65486;53.144;18.134;2023-09-30T01:42:00;14.60;;;10.60;;
76597;SDS011;65486;53.144;18.134;2023-09-30T01:44:27;16.10;;;11.00;;
76597;SDS011;65486;53.144;18.134;2023-09-30T01:46:54;16.90;;;11.30;;
76597;SDS011;65486;53.144;18.134;2023-09-30T01:49:21;15.80;;;11.70;;
76597;SDS011;65486;53.144;18.134;2023-09-30T01:51:54;15.20;;;11.10;;
76597;SDS011;65486;53.144;18.134;2023-09-30T01:54:22;19.00;;;11.70;;
76597;SDS011;65486;53.144;18.134;2023-09-30T01:56:49;17.50;;;12.40;;
76597;SDS011;65486;53.144;18.134;2023-09-30T01:59:17;18.90;;;13.60;;
76597;SDS011;65486;53.144;18.134;2023-09-30T02:01:44;15.40;;;11.70;;
76597;SDS011;65486;53.144;18.134;2023-09-30T02:04:12;18.10;;;12.70;;
76597;SDS011;65486;53.144;18.134;2023-09-30T02:06:42;16.80;;;12.00;;
76597;SDS011;65486;53.144;18.134;2023-09-30T02:09:13;18.20;;;12.00;;
76597;SDS011;65486;53.144;18.134;2023-09-30T02:11:43;18.50;;;12.20;;
76597;SDS011;65486;53.144;18.134;2023-09-30T02:14:10;18.90;;;12.10;;
76597;SDS011;65486;53.144;18.134;2023-09-30T02:16:41;16.50;;;11.70;;
76597;SDS011;65486;53.144;18.134;2023-09-30T02:19:10;17.40;;;11.70;;
76597;SDS011;65486;53.144;18.134;2023-09-30T02:21:43;18.80;;;12.40;;
76597;SDS011;65486;53.144;18.134;2023-09-30T02:24:11;18.90;;;11.50;;
76597;SDS011;65486;53.144;18.134;2023-09-30T02:26:38;17.90;;;11.80;;
76597;SDS011;65486;53.144;18.134;2023-09-30T02:29:05;16.40;;;11.90;;
76597;SDS011;65486;53.144;18.134;2023-09-30T02:31:35;15.50;;;11.40;;
76597;SDS011;65486;53.144;18.134;2023-09-30T02:34:03;16.60;;;12.70;;
76597;SDS011;65486;53.144;18.134;2023-09-30T02:36:33;17.40;;;12.70;;
76597;SDS011;65486;53.144;18.134;2023-09-30T02:39:05;18.30;;;12.20;;
76597;SDS011;65486;53.144;18.134;2023-09-30T02:41:34;16.40;;;11.90;;
76597;SDS011;65486;53.144;18.134;2023-09-30T02:44:03;19.30;;;12.80;;
76597;SDS011;65486;53.144;18.134;2023-09-30T02:46:32;16.40;;;12.20;;
76597;SDS011;65486;53.144;18.134;2023-09-30T02:49:00;19.00;;;12.60;;
76597;SDS011;65486;53.144;18.134;2023-09-30T02:51:29;18.90;;;11.80;;
76597;SDS011;65486;53.144;18.134;2023-09-30T02:53:57;17.70;;;12.30;;
76597;SDS011;65486;53.144;18.134;2023-09-30T02:56:26;15.10;;;11.90;;
76597;SDS011;65486;53.144;18.134;2023-09-30T02:58:57;19.20;;;13.30;;
76597;SDS011;65486;53.144;18.134;2023-09-30T03:01:28;18.90;;;14.30;;
76597;SDS011;65486;53.144;18.134;2023-09-30T03:03:54;19.50;;;13.30;;
76597;SDS011;65486;53.144;18.134;2023-09-30T03:06:24;17.10;;;13.40;;
76597;SDS011;65486;53.144;18.134;2023-09-30T03:08:55;20.00;;;14.70;;
76597;SDS011;65486;53.144;18.134;2023-09-30T03:11:22;19.70;;;14.30;;
76597;SDS011;65486;53.144;18.134;2023-09-30T03:13:49;20.10;;;13.80;;
76597;SDS011;65486;53.144;18.134;2023-09-30T03:16:18;18.50;;;13.70;;
76597;SDS011;65486;53.144;18.134;2023-09-30T03:18:47;21.20;;;14.60;;
76597;SDS011;65486;53.144;18.134;2023-09-30T03:21:16;17.70;;;12.70;;
76597;SDS011;65486;53.144;18.134;2023-09-30T03:23:43;19.70;;;13.00;;
76597;SDS011;65486;53.144;18.134;2023-09-30T03:26:14;19.60;;;13.30;;
76597;SDS011;65486;53.144;18.134;2023-09-30T03:28:45;18.80;;;12.00;;
76597;SDS011;65486;53.144;18.134;2023-09-30T03:31:12;15.00;;;11.70;;
76597;SDS011;65486;53.144;18.134;2023-09-30T03:33:40;18.80;;;12.00;;
76597;SDS011;65486;53.144;18.134;2023-09-30T03:36:08;19.10;;;13.10;;
76597;SDS011;65486;53.144;18.134;2023-09-30T03:38:36;20.10;;;11.70;;
76597;SDS011;65486;53.144;18.134;2023-09-30T03:41:03;16.10;;;11.90;;
76597;SDS011;65486;53.144;18.134;2023-09-30T03:43:29;16.50;;;11.60;;
76597;SDS011;65486;53.144;18.134;2023-09-30T03:45:57;17.60;;;12.50;;
76597;SDS011;65486;53.144;18.134;2023-09-30T03:48:24;18.70;;;12.80;;
76597;SDS011;65486;53.144;18.134;2023-09-30T03:50:52;18.60;;;11.90;;
76597;SDS011;65486;53.144;18.134;2023-09-30T03:53:23;16.60;;;10.90;;
76597;SDS011;65486;53.144;18.134;2023-09-30T03:55:55;14.30;;;11.20;;
76597;SDS011;65486;53.144;18.134;2023-09-30T03:58:26;15.40;;;10.60;;
76597;SDS011;65486;53.144;18.134;2023-09-30T04:01:02;12.00;;;9.90;;
76597;SDS011;65486;53.144;18.134;2023-09-30T04:03:31;14.20;;;9.70;;
76597;SDS011;65486;53.144;18.134;2023-09-30T04:06:01;13.20;;;9.60;;
76597;SDS011;65486;53.144;18.134;2023-09-30T04:08:49;14.50;;;10.60;;
76597;SDS011;65486;53.144;18.134;2023-09-30T04:11:17;11.10;;;8.80;;
76597;SDS011;65486;53.144;18.134;2023-09-30T04:13:46;13.60;;;9.30;;
76597;SDS011;65486;53.144;18.134;2023-09-30T04:16:13;11.10;;;7.10;;
76597;SDS011;65486;53.144;18.134;2023-09-30T04:18:40;9.30;;;6.20;;
76597;SDS011;65486;53.144;18.134;2023-09-30T04:21:17;9.00;;;5.10;;
76597;SDS011;65486;53.144;18.134;2023-09-30T04:23:44;8.00;;;4.30;;
76597;SDS011;65486;53.144;18.134;2023-09-30T04:26:14;7.90;;;4.20;;
76597;SDS011;65486;53.144;18.134;2023-09-30T04:28:44;7.60;;;3.80;;
76597;SDS011;65486;53.144;18.134;2023-09-30T04:31:12;7.10;;;3.10;;
76597;SDS011;65486;53.144;18.134;2023-09-30T04:33:39;6.60;;;3.00;;
76597;SDS011;65486;53.144;18.134;2023-09-30T04:36:08;5.40;;;2.70;;
76597;SDS011;65486;53.144;18.134;2023-09-30T04:38:37;5.70;;;2.60;;
76597;SDS011;65486;53.144;18.134;2023-09-30T04:41:06;6.00;;;2.20;;
76597;SDS011;65486;53.144;18.134;2023-09-30T04:43:37;6.70;;;1.90;;
76597;SDS011;65486;53.144;18.134;2023-09-30T04:46:06;5.00;;;1.60;;
76597;SDS011;65486;53.144;18.134;2023-09-30T04:48:40;4.20;;;1.60;;
76597;SDS011;65486;53.144;18.134;2023-09-30T04:51:08;3.50;;;1.20;;
76597;SDS011;65486;53.144;18.134;2023-09-30T04:53:35;4.30;;;1.40;;
76597;SDS011;65486;53.144;18.134;2023-09-30T04:56:02;2.50;;;1.20;;
76597;SDS011;65486;53.144;18.134;2023-09-30T04:58:30;3.50;;;1.40;;
76597;SDS011;65486;53.144;18.134;2023-09-30T05:01:00;3.80;;;1.30;;
76597;SDS011;65486;53.144;18.134;2023-09-30T05:03:29;3.80;;;1.40;;
76597;SDS011;65486;53.144;18.134;2023-09-30T05:05:56;4.80;;;1.30;;
76597;SDS011;65486;53.144;18.134;2023-09-30T05:08:24;4.30;;;1.30;;
76597;SDS011;65486;53.144;18.134;2023-09-30T05:10:52;4.40;;;1.20;;
76597;SDS011;65486;53.144;18.134;2023-09-30T05:13:22;8.10;;;1.40;;
76597;SDS011;65486;53.144;18.134;2023-09-30T05:15:55;5.70;;;1.60;;
76597;SDS011;65486;53.144;18.134;2023-09-30T05:18:22;3.70;;;1.40;;
76597;SDS011;65486;53.144;18.134;2023-09-30T05:20:50;5.20;;;1.20;;
76597;SDS011;65486;53.144;18.134;2023-09-30T05:23:19;4.60;;;1.10;;
76597;SDS011;65486;53.144;18.134;2023-09-30T05:25:47;5.90;;;1.20;;
76597;SDS011;65486;53.144;18.134;2023-09-30T05:28:15;4.80;;;1.50;;
76597;SDS011;65486;53.144;18.134;2023-09-30T05:30:42;4.20;;;1.20;;
76597;SDS011;65486;53.144;18.134;2023-09-30T05:33:12;7.20;;;1.40;;
76597;SDS011;65486;53.144;18.134;2023-09-30T05:35:47;7.50;;;1.50;;
76597;SDS011;65486;53.144;18.134;2023-09-30T05:38:14;4.70;;;1.50;;
76597;SDS011;65486;53.144;18.134;2023-09-30T05:40:42;4.40;;;1.30;;
76597;SDS011;65486;53.144;18.134;2023-09-30T05:43:09;4.70;;;1.50;;
76597;SDS011;65486;53.144;18.134;2023-09-30T05:45:40;3.80;;;1.40;;
76597;SDS011;65486;53.144;18.134;2023-09-30T05:48:16;6.20;;;1.60;;
76597;SDS011;65486;53.144;18.134;2023-09-30T05:50:43;6.10;;;1.40;;
76597;SDS011;65486;53.144;18.134;2023-09-30T05:53:15;4.80;;;1.30;;
76597;SDS011;65486;53.144;18.134;2023-09-30T05:55:43;4.50;;;1.30;;
76597;SDS011;65486;53.144;18.134;2023-09-30T05:58:13;9.20;;;1.80;;
76597;SDS011;65486;53.144;18.134;2023-09-30T06:00:43;6.30;;;1.70;;
76597;SDS011;65486;53.144;18.134;2023-09-30T06:03:14;5.20;;;1.80;;
76597;SDS011;65486;53.144;18.134;2023-09-30T06:05:41;6.70;;;2.00;;
76597;SDS011;65486;53.144;18.134;2023-09-30T06:08:10;7.30;;;1.60;;
76597;SDS011;65486;53.144;18.134;2023-09-30T06:10:43;6.00;;;1.40;;
76597;SDS011;65486;53.144;18.134;2023-09-30T06:13:14;7.50;;;1.50;;
76597;SDS011;65486;53.144;18.134;2023-09-30T06:15:42;4.70;;;1.70;;
76597;SDS011;65486;53.144;18.134;2023-09-30T06:18:10;6.80;;;1.80;;
76597;SDS011;65486;53.144;18.134;2023-09-30T06:20:39;9.20;;;2.00;;
76597;SDS011;65486;53.144;18.134;2023-09-30T06:23:09;8.30;;;2.00;;
76597;SDS011;65486;53.144;18.134;2023-09-30T06:25:38;7.00;;;1.70;;
76597;SDS011;65486;53.144;18.134;2023-09-30T06:28:11;6.40;;;1.80;;
76597;SDS011;65486;53.144;18.134;2023-09-30T06:30:40;8.50;;;1.60;;
76597;SDS011;65486;53.144;18.134;2023-09-30T06:33:12;7.30;;;1.90;;
76597;SDS011;65486;53.144;18.134;2023-09-30T06:35:42;5.20;;;1.60;;
76597;SDS011;65486;53.144;18.134;2023-09-30T06:38:18;7.70;;;2.70;;
76597;SDS011;65486;53.144;18.134;2023-09-30T06:40:46;8.00;;;1.70;;
76597;SDS011;65486;53.144;18.134;2023-09-30T06:43:14;7.30;;;2.20;;
76597;SDS011;65486;53.144;18.134;2023-09-30T06:45:44;8.10;;;2.00;;
76597;SDS011;65486;53.144;18.134;2023-09-30T06:48:13;6.30;;;1.60;;
76597;SDS011;65486;53.144;18.134;2023-09-30T06:50:43;7.80;;;1.60;;
76597;SDS011;65486;53.144;18.134;2023-09-30T06:53:18;8.70;;;2.10;;
76597;SDS011;65486;53.144;18.134;2023-09-30T06:55:45;8.80;;;1.70;;
76597;SDS011;65486;53.144;18.134;2023-09-30T06:58:12;6.70;;;1.70;;
76597;SDS011;65486;53.144;18.134;2023-09-30T07:00:40;7.20;;;2.00;;
76597;SDS011;65486;53.144;18.134;2023-09-30T07:03:08;9.40;;;1.90;;
76597;SDS011;65486;53.144;18.134;2023-09-30T07:05:36;8.50;;;1.70;;
76597;SDS011;65486;53.144;18.134;2023-09-30T07:08:07;8.40;;;2.20;;
76597;SDS011;65486;53.144;18.134;2023-09-30T07:10:35;8.10;;;2.00;;
76597;SDS011;65486;53.144;18.134;2023-09-30T07:13:03;5.70;;;1.70;;
76597;SDS011;65486;53.144;18.134;2023-09-30T07:15:30;7.30;;;2.10;;
76597;SDS011;65486;53.144;18.134;2023-09-30T07:17:57;9.50;;;2.20;;
76597;SDS011;65486;53.144;18.134;2023-09-30T07:20:24;9.20;;;1.90;;
76597;SDS011;65486;53.144;18.134;2023-09-30T07:22:51;6.50;;;2.30;;
76597;SDS011;65486;53.144;18.134;2023-09-30T07:25:28;9.00;;;2.20;;
76597;SDS011;65486;53.144;18.134;2023-09-30T07:28:10;9.90;;;2.70;;
76597;SDS011;65486;53.144;18.134;2023-09-30T07:30:39;6.60;;;2.10;;
76597;SDS011;65486;53.144;18.134;2023-09-30T07:33:09;9.10;;;2.30;;
76597;SDS011;65486;53.144;18.134;2023-09-30T07:35:37;7.20;;;1.90;;
76597;SDS011;65486;53.144;18.134;2023-09-30T07:38:05;7.60;;;3.00;;
76597;SDS011;65486;53.144;18.134;2023-09-30T07:40:32;8.10;;;2.30;;
76597;SDS011;65486;53.144;18.134;2023-09-30T07:43:01;6.80;;;2.40;;
76597;SDS011;65486;53.144;18.134;2023-09-30T07:45:29;7.90;;;2.30;;
76597;SDS011;65486;53.144;18.134;2023-09-30T07:47:56;7.20;;;2.40;;
76597;SDS011;65486;53.144;18.134;2023-09-30T07:50:35;6.50;;;2.40;;
76597;SDS011;65486;53.144;18.134;2023-09-30T07:53:08;8.20;;;2.70;;
76597;SDS011;65486;53.144;18.134;2023-09-30T07:55:35;7.10;;;2.20;;
76597;SDS011;65486;53.144;18.134;2023-09-30T07:58:02;8.30;;;2.60;;
76597;SDS011;65486;53.144;18.134;2023-09-30T08:00:29;7.40;;;2.50;;
76597;SDS011;65486;53.144;18.134;2023-09-30T08:02:57;7.90;;;2.30;;
76597;SDS011;65486;53.144;18.134;2023-09-30T08:05:27;6.10;;;2.30;;
76597;SDS011;65486;53.144;18.134;2023-09-30T08:07:53;8.30;;;2.90;;
76597;SDS011;65486;53.144;18.134;2023-09-30T08:10:20;6.30;;;2.10;;
76597;SDS011;65486;53.144;18.134;2023-09-30T08:12:50;5.90;;;1.80;;
76597;SDS011;65486;53.144;18.134;2023-09-30T08:15:17;8.50;;;2.20;;
76597;SDS011;65486;53.144;18.134;2023-09-30T08:17:48;8.30;;;2.60;;
76597;SDS011;65486;53.144;18.134;2023-09-30T08:20:17;6.70;;;1.80;;
76597;SDS011;65486;53.144;18.134;2023-09-30T08:22:45;7.20;;;2.60;;
76597;SDS011;65486;53.144;18.134;2023-09-30T08:25:12;9.50;;;2.40;;
76597;SDS011;65486;53.144;18.134;2023-09-30T08:27:39;6.60;;;1.90;;
76597;SDS011;65486;53.144;18.134;2023-09-30T08:30:06;6.80;;;2.40;;
76597;SDS011;65486;53.144;18.134;2023-09-30T08:32:36;7.00;;;2.30;;
76597;SDS011;65486;53.144;18.134;2023-09-30T08:35:03;8.20;;;2.20;;
76597;SDS011;65486;53.144;18.134;2023-09-30T08:37:32;8.00;;;2.40;;
76597;SDS011;65486;53.144;18.134;2023-09-30T08:40:00;10.60;;;2.30;;
76597;SDS011;65486;53.144;18.134;2023-09-30T08:42:27;8.40;;;2.10;;
76597;SDS011;65486;53.144;18.134;2023-09-30T08:45:05;10.70;;;1.90;;
76597;SDS011;65486;53.144;18.134;2023-09-30T08:47:38;7.00;;;2.20;;
76597;SDS011;65486;53.144;18.134;2023-09-30T08:50:07;10.30;;;2.20;;
76597;SDS011;65486;53.144;18.134;2023-09-30T08:52:40;8.00;;;2.60;;
76597;SDS011;65486;53.144;18.134;2023-09-30T08:55:09;6.30;;;2.20;;
76597;SDS011;65486;53.144;18.134;2023-09-30T08:57:43;6.30;;;1.90;;
76597;SDS011;65486;53.144;18.134;2023-09-30T09:00:11;7.20;;;2.40;;
76597;SDS011;65486;53.144;18.134;2023-09-30T09:02:40;9.90;;;2.80;;
76597;SDS011;65486;53.144;18.134;2023-09-30T09:05:08;5.90;;;2.30;;
76597;SDS011;65486;53.144;18.134;2023-09-30T09:07:36;7.90;;;2.80;;
76597;SDS011;65486;53.144;18.134;2023-09-30T09:10:10;7.60;;;1.90;;
76597;SDS011;65486;53.144;18.134;2023-09-30T09:12:55;7.40;;;2.40;;
76597;SDS011;65486;53.144;18.134;2023-09-30T09:15:33;9.20;;;2.50;;
76597;SDS011;65486;53.144;18.134;2023-09-30T09:18:06;8.30;;;2.90;;
76597;SDS011;65486;53.144;18.134;2023-09-30T09:20:40;7.00;;;2.10;;
76597;SDS011;65486;53.144;18.134;2023-09-30T09:23:14;5.60;;;1.80;;
76597;SDS011;65486;53.144;18.134;2023-09-30T09:25:42;7.20;;;2.00;;
76597;SDS011;65486;53.144;18.134;2023-09-30T09:28:11;5.80;;;1.30;;
76597;SDS011;65486;53.144;18.134;2023-09-30T09:30:41;8.90;;;2.60;;
76597;SDS011;65486;53.144;18.134;2023-09-30T09:33:19;8.30;;;1.90;;
76597;SDS011;65486;53.144;18.134;2023-09-30T09:35:47;7.00;;;1.80;;
76597;SDS011;65486;53.144;18.134;2023-09-30T09:38:27;7.70;;;2.40;;
76597;SDS011;65486;53.144;18.134;2023-09-30T09:41:22;8.90;;;2.40;;
76597;SDS011;65486;53.144;18.134;2023-09-30T09:43:50;7.60;;;2.60;;
76597;SDS011;65486;53.144;18.134;2023-09-30T09:46:17;7.50;;;2.30;;
76597;SDS011;65486;53.144;18.134;2023-09-30T09:48:46;9.50;;;2.70;;
76597;SDS011;65486;53.144;18.134;2023-09-30T09:51:14;6.70;;;2.70;;
76597;SDS011;65486;53.144;18.134;2023-09-30T09:53:45;8.50;;;2.30;;
76597;SDS011;65486;53.144;18.134;2023-09-30T09:56:15;6.40;;;2.50;;
76597;SDS011;65486;53.144;18.134;2023-09-30T09:58:47;6.80;;;1.90;;
76597;SDS011;65486;53.144;18.134;2023-09-30T10:01:16;7.20;;;2.20;;
76597;SDS011;65486;53.144;18.134;2023-09-30T10:03:44;7.80;;;2.60;;
76597;SDS011;65486;53.144;18.134;2023-09-30T10:06:12;9.40;;;3.10;;
76597;SDS011;65486;53.144;18.134;2023-09-30T10:08:42;7.20;;;2.40;;
76597;SDS011;65486;53.144;18.134;2023-09-30T10:11:18;7.50;;;2.00;;
76597;SDS011;65486;53.144;18.134;2023-09-30T10:13:50;6.90;;;2.30;;
76597;SDS011;65486;53.144;18.134;2023-09-30T10:19:14;7.70;;;2.80;;
76597;SDS011;65486;53.144;18.134;2023-09-30T10:24:52;7.80;;;2.40;;
76597;SDS011;65486;53.144;18.134;2023-09-30T10:35:20;9.20;;;2.30;;
76597;SDS011;65486;53.144;18.134;2023-09-30T10:41:13;8.80;;;2.10;;
76597;SDS011;65486;53.144;18.134;2023-09-30T10:46:59;5.40;;;2.00;;
76597;SDS011;65486;53.144;18.134;2023-09-30T10:51:55;5.60;;;2.00;;
76597;SDS011;65486;53.144;18.134;2023-09-30T10:54:25;7.10;;;2.00;;
76597;SDS011;65486;53.144;18.134;2023-09-30T10:56:59;9.70;;;2.10;;
76597;SDS011;65486;53.144;18.134;2023-09-30T10:59:28;7.80;;;2.40;;
76597;SDS011;65486;53.144;18.134;2023-09-30T11:02:03;6.80;;;2.30;;
76597;SDS011;65486;53.144;18.134;2023-09-30T11:04:46;9.30;;;2.40;;
76597;SDS011;65486;53.144;18.134;2023-09-30T11:07:17;7.40;;;2.50;;
76597;SDS011;65486;53.144;18.134;2023-09-30T11:09:53;9.50;;;3.90;;
76597;SDS011;65486;53.144;18.134;2023-09-30T11:12:20;10.60;;;3.30;;
76597;SDS011;65486;53.144;18.134;2023-09-30T11:14:47;11.40;;;2.90;;
76597;SDS011;65486;53.144;18.134;2023-09-30T11:17:14;8.30;;;1.80;;
76597;SDS011;65486;53.144;18.134;2023-09-30T11:19:48;7.20;;;2.60;;
76597;SDS011;65486;53.144;18.134;2023-09-30T11:22:15;6.60;;;1.90;;
76597;SDS011;65486;53.144;18.134;2023-09-30T11:24:42;9.20;;;2.20;;
76597;SDS011;65486;53.144;18.134;2023-09-30T11:27:10;7.40;;;1.90;;
76597;SDS011;65486;53.144;18.134;2023-09-30T11:29:47;7.20;;;1.50;;
76597;SDS011;65486;53.144;18.134;2023-09-30T11:32:24;9.70;;;2.10;;
76597;SDS011;65486;53.144;18.134;2023-09-30T11:34:55;7.00;;;1.80;;
76597;SDS011;65486;53.144;18.134;2023-09-30T11:37:23;7.60;;;2.00;;
76597;SDS011;65486;53.144;18.134;2023-09-30T11:39:50;7.40;;;2.00;;
76597;SDS011;65486;53.144;18.134;2023-09-30T11:42:18;6.70;;;1.60;;
76597;SDS011;65486;53.144;18.134;2023-09-30T11:44:46;8.00;;;1.60;;
76597;SDS011;65486;53.144;18.134;2023-09-30T11:47:15;6.70;;;1.80;;
76597;SDS011;65486;53.144;18.134;2023-09-30T11:49:43;6.10;;;1.70;;
76597;SDS011;65486;53.144;18.134;2023-09-30T11:52:13;7.60;;;1.70;;
76597;SDS011;65486;53.144;18.134;2023-09-30T11:54:43;8.20;;;1.10;;
76597;SDS011;65486;53.144;18.134;2023-09-30T11:57:11;5.10;;;1.30;;
76597;SDS011;65486;53.144;18.134;2023-09-30T11:59:42;6.70;;;1.50;;
76597;SDS011;65486;53.144;18.134;2023-09-30T12:02:13;6.30;;;1.60;;
76597;SDS011;65486;53.144;18.134;2023-09-30T12:04:43;5.30;;;1.00;;
76597;SDS011;65486;53.144;18.134;2023-09-30T12:07:14;7.90;;;1.70;;
76597;SDS011;65486;53.144;18.134;2023-09-30T12:09:41;5.50;;;1.10;;
76597;SDS011;65486;53.144;18.134;2023-09-30T12:12:11;6.80;;;1.70;;
76597;SDS011;65486;53.144;18.134;2023-09-30T12:14:41;4.70;;;1.50;;
76597;SDS011;65486;53.144;18.134;2023-09-30T12:17:08;5.80;;;1.80;;
76597;SDS011;65486;53.144;18.134;2023-09-30T12:19:38;5.00;;;1.10;;
76597;SDS011;65486;53.144;18.134;2023-09-30T12:22:05;5.30;;;1.30;;
76597;SDS011;65486;53.144;18.134;2023-09-30T12:24:32;7.70;;;1.90;;
76597;SDS011;65486;53.144;18.134;2023-09-30T12:27:00;6.50;;;1.40;;
76597;SDS011;65486;53.144;18.134;2023-09-30T12:29:28;5.50;;;1.20;;
76597;SDS011;65486;53.144;18.134;2023-09-30T12:31:55;6.90;;;1.60;;
76597;SDS011;65486;53.144;18.134;2023-09-30T12:34:21;5.90;;;1.00;;
76597;SDS011;65486;53.144;18.134;2023-09-30T12:36:53;6.70;;;1.60;;
76597;SDS011;65486;53.144;18.134;2023-09-30T12:39:22;8.00;;;1.80;;
76597;SDS011;65486;53.144;18.134;2023-09-30T12:41:51;8.70;;;2.20;;
76597;SDS011;65486;53.144;18.134;2023-09-30T12:44:18;7.90;;;1.80;;
76597;SDS011;65486;53.144;18.134;2023-09-30T12:46:45;6.20;;;1.70;;
76597;SDS011;65486;53.144;18.134;2023-09-30T12:49:12;6.30;;;1.70;;
76597;SDS011;65486;53.144;18.134;2023-09-30T12:51:39;5.50;;;1.70;;
76597;SDS011;65486;53.144;18.134;2023-09-30T12:54:07;6.80;;;1.60;;
76597;SDS011;65486;53.144;18.134;2023-09-30T12:56:37;10.20;;;1.90;;
76597;SDS011;65486;53.144;18.134;2023-09-30T12:59:06;5.30;;;1.40;;
76597;SDS011;65486;53.144;18.134;2023-09-30T13:01:33;5.60;;;2.00;;
76597;SDS011;65486;53.144;18.134;2023-09-30T13:04:02;5.90;;;1.80;;
76597;SDS011;65486;53.144;18.134;2023-09-30T13:06:37;5.40;;;1.60;;
76597;SDS011;65486;53.144;18.134;2023-09-30T13:09:04;6.10;;;1.70;;
76597;SDS011;65486;53.144;18.134;2023-09-30T13:11:34;6.10;;;1.40;;
76597;SDS011;65486;53.144;18.134;2023-09-30T13:14:01;5.00;;;1.40;;
76597;SDS011;65486;53.144;18.134;2023-09-30T13:16:30;6.60;;;1.60;;
76597;SDS011;65486;53.144;18.134;2023-09-30T13:18:56;9.60;;;1.50;;
76597;SDS011;65486;53.144;18.134;2023-09-30T13:21:23;7.00;;;1.60;;
76597;SDS011;65486;53.144;18.134;2023-09-30T13:23:50;6.70;;;1.50;;
76597;SDS011;65486;53.144;18.134;2023-09-30T13:26:19;8.30;;;2.30;;
76597;SDS011;65486;53.144;18.134;2023-09-30T13:28:46;6.10;;;1.40;;
76597;SDS011;65486;53.144;18.134;2023-09-30T13:31:16;6.20;;;1.60;;
76597;SDS011;65486;53.144;18.134;2023-09-30T13:33:43;5.90;;;1.20;;
76597;SDS011;65486;53.144;18.134;2023-09-30T13:36:11;9.60;;;1.70;;
76597;SDS011;65486;53.144;18.134;2023-09-30T13:38:41;4.60;;;1.40;;
76597;SDS011;65486;53.144;18.134;2023-09-30T13:41:08;6.10;;;1.70;;
76597;SDS011;65486;53.144;18.134;2023-09-30T13:43:37;6.40;;;1.40;;
76597;SDS011;65486;53.144;18.134;2023-09-30T13:46:08;4.60;;;1.40;;
76597;SDS011;65486;53.144;18.134;2023-09-30T13:48:45;5.20;;;1.30;;
76597;SDS011;65486;53.144;18.134;2023-09-30T13:51:17;6.20;;;1.50;;
76597;SDS011;65486;53.144;18.134;2023-09-30T13:53:45;6.70;;;1.50;;
76597;SDS011;65486;53.144;18.134;2023-09-30T13:56:12;4.70;;;1.40;;
76597;SDS011;65486;53.144;18.134;2023-09-30T13:58:40;5.10;;;1.30;;
76597;SDS011;65486;53.144;18.134;2023-09-30T14:01:08;6.60;;;1.80;;
76597;SDS011;65486;53.144;18.134;2023-09-30T14:03:40;6.70;;;1.40;;
76597;SDS011;65486;53.144;18.134;2023-09-30T14:06:10;9.00;;;1.70;;
76597;SDS011;65486;53.144;18.134;2023-09-30T14:08:39;6.20;;;1.50;;
76597;SDS011;65486;53.144;18.134;2023-09-30T14:11:13;7.00;;;1.50;;
76597;SDS011;65486;53.144;18.134;2023-09-30T14:13:41;8.20;;;1.20;;
76597;SDS011;65486;53.144;18.134;2023-09-30T14:16:10;7.80;;;2.10;;
76597;SDS011;65486;53.144;18.134;2023-09-30T14:18:39;8.30;;;1.50;;
76597;SDS011;65486;53.144;18.134;2023-09-30T14:21:06;6.40;;;1.40;;
76597;SDS011;65486;53.144;18.134;2023-09-30T14:23:35;9.00;;;1.20;;
76597;SDS011;65486;53.144;18.134;2023-09-30T14:26:02;6.40;;;1.50;;
76597;SDS011;65486;53.144;18.134;2023-09-30T14:28:37;7.70;;;1.50;;
76597;SDS011;65486;53.144;18.134;2023-09-30T14:31:04;6.80;;;1.70;;
76597;SDS011;65486;53.144;18.134;2023-09-30T14:33:31;7.00;;;1.30;;
76597;SDS011;65486;53.144;18.134;2023-09-30T14:36:00;6.70;;;1.60;;
76597;SDS011;65486;53.144;18.134;2023-09-30T14:38:30;4.90;;;1.20;;
76597;SDS011;65486;53.144;18.134;2023-09-30T14:40:57;6.90;;;1.50;;
76597;SDS011;65486;53.144;18.134;2023-09-30T14:43:26;7.30;;;1.40;;
76597;SDS011;65486;53.144;18.134;2023-09-30T14:45:56;5.80;;;1.50;;
76597;SDS011;65486;53.144;18.134;2023-09-30T14:48:38;5.90;;;1.50;;
76597;SDS011;65486;53.144;18.134;2023-09-30T14:51:06;5.50;;;1.60;;
76597;SDS011;65486;53.144;18.134;2023-09-30T14:53:36;7.70;;;1.80;;
76597;SDS011;65486;53.144;18.134;2023-09-30T14:56:03;9.20;;;1.50;;
76597;SDS011;65486;53.144;18.134;2023-09-30T14:58:42;5.50;;;1.50;;
76597;SDS011;65486;53.144;18.134;2023-09-30T15:01:11;8.00;;;1.60;;